sim
Sign-in with your pilot id or email,
or register
Callsign
Passwort

Schedule Details

Flight Number: OEC148
Departure: Rotterdam Airport (EHRD) at 18:00
Arrival: Geneva International Airport (LSGG) at 19:35
Route: WOOD1A WOODY UN872 NIK UM624 BUB UQ624 ROUSY UM624 TORPA UZ24 AKITO AKIT2R

Weather Information
Getting current METAR information for EHRD 101655Z AUTO 04014KT 360V080 9999 -SHRA FEW009 BKN010 BKN013 04/03 Q1011 BECMG 7000
Getting current METAR information for LSGG 101650Z 24009KT 9999 FEW080 14/02 Q1012 NOSIG

Schedule Frequency

Route Map